sensor_id;sensor_type;location;lat;lon;timestamp;pressure;altitude;pressure_sealevel;temperature;humidity
18987;BME280;9627;59.236;18.142;2023-03-23T00:01:25;98866.50;;;5.67;100.00
18987;BME280;9627;59.236;18.142;2023-03-23T00:03:55;98857.75;;;5.53;100.00
18987;BME280;9627;59.236;18.142;2023-03-23T00:06:23;98848.25;;;5.52;100.00
18987;BME280;9627;59.236;18.142;2023-03-23T00:08:53;98849.63;;;5.48;100.00
18987;BME280;9627;59.236;18.142;2023-03-23T00:11:25;98872.09;;;5.44;100.00
18987;BME280;9627;59.236;18.142;2023-03-23T00:13:54;98877.53;;;5.43;100.00
18987;BME280;9627;59.236;18.142;2023-03-23T00:16:23;98874.31;;;5.47;100.00
18987;BME280;9627;59.236;18.142;2023-03-23T00:18:54;98864.97;;;5.38;100.00
18987;BME280;9627;59.236;18.142;2023-03-23T00:21:22;98865.13;;;5.30;100.00
18987;BME280;9627;59.236;18.142;2023-03-23T00:23:50;98873.78;;;5.24;100.00
18987;BME280;9627;59.236;18.142;2023-03-23T00:26:19;98877.22;;;5.18;100.00
18987;BME280;9627;59.236;18.142;2023-03-23T00:28:46;98871.34;;;5.16;100.00
18987;BME280;9627;59.236;18.142;2023-03-23T00:31:13;98875.63;;;5.24;100.00
18987;BME280;9627;59.236;18.142;2023-03-23T00:33:42;98877.44;;;5.23;100.00
18987;BME280;9627;59.236;18.142;2023-03-23T00:36:10;98878.25;;;5.24;100.00
18987;BME280;9627;59.236;18.142;2023-03-23T00:38:37;98865.91;;;5.24;100.00
18987;BME280;9627;59.236;18.142;2023-03-23T00:41:05;98873.97;;;5.16;100.00
18987;BME280;9627;59.236;18.142;2023-03-23T00:43:34;98871.56;;;5.21;100.00
18987;BME280;9627;59.236;18.142;2023-03-23T00:46:04;98870.75;;;5.21;100.00
18987;BME280;9627;59.236;18.142;2023-03-23T00:48:34;98871.13;;;5.18;100.00
18987;BME280;9627;59.236;18.142;2023-03-23T00:51:05;98862.84;;;5.21;100.00
18987;BME280;9627;59.236;18.142;2023-03-23T00:53:37;98871.97;;;5.18;100.00
18987;BME280;9627;59.236;18.142;2023-03-23T00:56:04;98866.66;;;5.12;100.00
18987;BME280;9627;59.236;18.142;2023-03-23T00:58:33;98868.00;;;5.01;100.00
18987;BME280;9627;59.236;18.142;2023-03-23T01:01:01;98869.47;;;5.10;100.00
18987;BME280;9627;59.236;18.142;2023-03-23T01:03:28;98865.41;;;5.08;100.00
18987;BME280;9627;59.236;18.142;2023-03-23T01:05:55;98874.88;;;5.02;100.00
18987;BME280;9627;59.236;18.142;2023-03-23T01:08:23;98878.53;;;5.01;100.00
18987;BME280;9627;59.236;18.142;2023-03-23T01:10:50;98877.50;;;4.96;100.00
18987;BME280;9627;59.236;18.142;2023-03-23T01:13:19;98876.63;;;4.89;100.00
18987;BME280;9627;59.236;18.142;2023-03-23T01:15:49;98884.13;;;4.92;100.00
18987;BME280;9627;59.236;18.142;2023-03-23T01:18:16;98886.31;;;4.88;100.00
18987;BME280;9627;59.236;18.142;2023-03-23T01:20:44;98876.81;;;4.87;100.00
18987;BME280;9627;59.236;18.142;2023-03-23T01:23:11;98891.91;;;4.79;100.00
18987;BME280;9627;59.236;18.142;2023-03-23T01:25:38;98884.97;;;4.71;100.00
18987;BME280;9627;59.236;18.142;2023-03-23T01:28:05;98881.72;;;4.69;100.00
18987;BME280;9627;59.236;18.142;2023-03-23T01:30:32;98880.44;;;4.58;100.00
18987;BME280;9627;59.236;18.142;2023-03-23T01:33:02;98885.25;;;4.55;100.00
18987;BME280;9627;59.236;18.142;2023-03-23T01:35:29;98895.56;;;4.56;100.00
18987;BME280;9627;59.236;18.142;2023-03-23T01:37:56;98891.34;;;4.55;100.00
18987;BME280;9627;59.236;18.142;2023-03-23T01:40:26;98898.22;;;4.56;100.00
18987;BME280;9627;59.236;18.142;2023-03-23T01:42:53;98888.56;;;4.42;100.00
18987;BME280;9627;59.236;18.142;2023-03-23T01:45:22;98889.81;;;4.46;100.00
18987;BME280;9627;59.236;18.142;2023-03-23T01:47:50;98882.91;;;4.39;100.00
18987;BME280;9627;59.236;18.142;2023-03-23T01:50:22;98885.50;;;4.39;100.00
18987;BME280;9627;59.236;18.142;2023-03-23T01:52:51;98884.72;;;4.38;100.00
18987;BME280;9627;59.236;18.142;2023-03-23T01:55:20;98878.66;;;4.38;100.00
18987;BME280;9627;59.236;18.142;2023-03-23T01:57:48;98885.09;;;4.35;100.00
18987;BME280;9627;59.236;18.142;2023-03-23T02:00:16;98895.91;;;4.26;100.00
18987;BME280;9627;59.236;18.142;2023-03-23T02:02:43;98893.91;;;4.28;100.00
18987;BME280;9627;59.236;18.142;2023-03-23T02:05:12;98900.34;;;4.25;100.00
18987;BME280;9627;59.236;18.142;2023-03-23T02:07:42;98894.22;;;4.18;100.00
18987;BME280;9627;59.236;18.142;2023-03-23T02:10:10;98894.03;;;4.20;100.00
18987;BME280;9627;59.236;18.142;2023-03-23T02:12:37;98905.53;;;4.19;100.00
18987;BME280;9627;59.236;18.142;2023-03-23T02:15:04;98903.59;;;4.06;100.00
18987;BME280;9627;59.236;18.142;2023-03-23T02:17:33;98898.38;;;3.92;100.00
18987;BME280;9627;59.236;18.142;2023-03-23T02:20:15;98893.25;;;3.84;100.00
18987;BME280;9627;59.236;18.142;2023-03-23T02:25:35;98900.25;;;3.76;100.00
18987;BME280;9627;59.236;18.142;2023-03-23T02:28:14;98894.56;;;3.73;100.00
18987;BME280;9627;59.236;18.142;2023-03-23T02:30:47;98886.06;;;3.71;100.00
18987;BME280;9627;59.236;18.142;2023-03-23T02:33:27;98901.59;;;3.72;100.00
18987;BME280;9627;59.236;18.142;2023-03-23T02:35:57;98893.97;;;3.77;100.00
18987;BME280;9627;59.236;18.142;2023-03-23T02:38:26;98893.63;;;3.81;100.00
18987;BME280;9627;59.236;18.142;2023-03-23T02:40:55;98890.38;;;3.78;100.00
18987;BME280;9627;59.236;18.142;2023-03-23T02:43:24;98889.75;;;3.76;100.00
18987;BME280;9627;59.236;18.142;2023-03-23T02:45:52;98894.56;;;3.73;100.00
18987;BME280;9627;59.236;18.142;2023-03-23T02:48:22;98891.22;;;3.64;100.00
18987;BME280;9627;59.236;18.142;2023-03-23T02:50:52;98894.91;;;3.70;100.00
18987;BME280;9627;59.236;18.142;2023-03-23T02:53:20;98898.25;;;3.78;100.00
18987;BME280;9627;59.236;18.142;2023-03-23T02:55:49;98885.41;;;3.69;100.00
18987;BME280;9627;59.236;18.142;2023-03-23T02:58:17;98891.78;;;3.60;100.00
18987;BME280;9627;59.236;18.142;2023-03-23T03:00:45;98891.97;;;3.58;100.00
18987;BME280;9627;59.236;18.142;2023-03-23T03:03:15;98897.22;;;3.58;100.00
18987;BME280;9627;59.236;18.142;2023-03-23T03:05:44;98882.44;;;3.57;100.00
18987;BME280;9627;59.236;18.142;2023-03-23T03:08:21;98885.72;;;3.59;100.00
18987;BME280;9627;59.236;18.142;2023-03-23T03:10:52;98895.56;;;3.57;100.00
18987;BME280;9627;59.236;18.142;2023-03-23T03:13:27;98889.94;;;3.60;100.00
18987;BME280;9627;59.236;18.142;2023-03-23T03:15:59;98891.16;;;3.58;100.00
18987;BME280;9627;59.236;18.142;2023-03-23T03:18:28;98886.53;;;3.45;100.00
18987;BME280;9627;59.236;18.142;2023-03-23T03:20:58;98885.09;;;3.43;100.00
18987;BME280;9627;59.236;18.142;2023-03-23T03:23:29;98890.59;;;3.48;100.00
18987;BME280;9627;59.236;18.142;2023-03-23T03:25:57;98886.81;;;3.50;100.00
18987;BME280;9627;59.236;18.142;2023-03-23T03:28:25;98894.53;;;3.37;100.00
18987;BME280;9627;59.236;18.142;2023-03-23T03:30:53;98890.69;;;3.40;100.00
18987;BME280;9627;59.236;18.142;2023-03-23T03:33:22;98896.78;;;3.40;100.00
18987;BME280;9627;59.236;18.142;2023-03-23T03:35:50;98908.28;;;3.39;100.00
18987;BME280;9627;59.236;18.142;2023-03-23T03:38:18;98896.13;;;3.38;100.00
18987;BME280;9627;59.236;18.142;2023-03-23T03:40:47;98902.53;;;3.36;100.00
18987;BME280;9627;59.236;18.142;2023-03-23T03:43:15;98909.50;;;3.43;100.00
18987;BME280;9627;59.236;18.142;2023-03-23T03:45:42;98909.06;;;3.40;100.00
18987;BME280;9627;59.236;18.142;2023-03-23T03:48:10;98906.16;;;3.49;100.00
18987;BME280;9627;59.236;18.142;2023-03-23T03:50:37;98903.91;;;3.46;100.00
18987;BME280;9627;59.236;18.142;2023-03-23T03:53:05;98902.53;;;3.36;100.00
18987;BME280;9627;59.236;18.142;2023-03-23T03:55:32;98907.78;;;3.36;100.00
18987;BME280;9627;59.236;18.142;2023-03-23T03:58:05;98901.13;;;3.33;100.00
18987;BME280;9627;59.236;18.142;2023-03-23T04:00:33;98899.47;;;3.32;100.00
18987;BME280;9627;59.236;18.142;2023-03-23T04:03:00;98891.34;;;3.27;100.00
18987;BME280;9627;59.236;18.142;2023-03-23T04:05:28;98889.56;;;3.28;100.00
18987;BME280;9627;59.236;18.142;2023-03-23T04:07:55;98887.38;;;3.31;100.00
18987;BME280;9627;59.236;18.142;2023-03-23T04:10:26;98891.63;;;3.32;100.00
18987;BME280;9627;59.236;18.142;2023-03-23T04:12:54;98894.25;;;3.18;100.00
18987;BME280;9627;59.236;18.142;2023-03-23T04:15:23;98899.22;;;3.27;100.00
18987;BME280;9627;59.236;18.142;2023-03-23T04:17:51;98896.03;;;3.32;100.00
18987;BME280;9627;59.236;18.142;2023-03-23T04:20:18;98881.16;;;3.18;100.00
18987;BME280;9627;59.236;18.142;2023-03-23T04:22:45;98885.31;;;3.12;100.00
18987;BME280;9627;59.236;18.142;2023-03-23T04:25:15;98889.28;;;3.08;100.00
18987;BME280;9627;59.236;18.142;2023-03-23T04:27:45;98881.97;;;3.18;100.00
18987;BME280;9627;59.236;18.142;2023-03-23T04:30:17;98893.09;;;3.20;100.00
18987;BME280;9627;59.236;18.142;2023-03-23T04:32:46;98888.81;;;3.19;100.00
18987;BME280;9627;59.236;18.142;2023-03-23T04:35:15;98886.72;;;3.15;100.00
18987;BME280;9627;59.236;18.142;2023-03-23T04:37:43;98889.53;;;3.13;100.00
18987;BME280;9627;59.236;18.142;2023-03-23T04:40:11;98889.84;;;3.18;100.00
18987;BME280;9627;59.236;18.142;2023-03-23T04:42:40;98882.31;;;3.15;100.00
18987;BME280;9627;59.236;18.142;2023-03-23T04:45:10;98886.19;;;3.19;100.00
18987;BME280;9627;59.236;18.142;2023-03-23T04:47:39;98893.44;;;3.17;100.00
18987;BME280;9627;59.236;18.142;2023-03-23T04:50:10;98891.44;;;3.19;100.00
18987;BME280;9627;59.236;18.142;2023-03-23T04:52:38;98893.69;;;3.22;100.00
18987;BME280;9627;59.236;18.142;2023-03-23T04:55:10;98896.31;;;3.22;100.00
18987;BME280;9627;59.236;18.142;2023-03-23T04:57:37;98898.94;;;3.22;100.00
18987;BME280;9627;59.236;18.142;2023-03-23T05:00:05;98901.56;;;3.22;100.00
18987;BME280;9627;59.236;18.142;2023-03-23T05:02:34;98896.13;;;3.38;100.00
18987;BME280;9627;59.236;18.142;2023-03-23T05:05:01;98902.84;;;3.41;100.00
18987;BME280;9627;59.236;18.142;2023-03-23T05:07:30;98898.63;;;3.61;100.00
18987;BME280;9627;59.236;18.142;2023-03-23T05:09:58;98903.41;;;3.87;100.00
18987;BME280;9627;59.236;18.142;2023-03-23T05:12:25;98913.47;;;4.25;100.00
18987;BME280;9627;59.236;18.142;2023-03-23T05:14:52;98906.53;;;4.60;100.00
18987;BME280;9627;59.236;18.142;2023-03-23T05:17:19;98906.34;;;4.89;100.00
18987;BME280;9627;59.236;18.142;2023-03-23T05:19:49;98905.81;;;5.28;100.00
18987;BME280;9627;59.236;18.142;2023-03-23T05:22:16;98902.47;;;5.53;100.00
18987;BME280;9627;59.236;18.142;2023-03-23T05:24:47;98912.34;;;5.86;100.00
18987;BME280;9627;59.236;18.142;2023-03-23T05:27:16;98911.03;;;6.22;100.00
18987;BME280;9627;59.236;18.142;2023-03-23T05:29:44;98910.50;;;6.66;100.00
18987;BME280;9627;59.236;18.142;2023-03-23T05:32:13;98911.50;;;6.98;100.00
18987;BME280;9627;59.236;18.142;2023-03-23T05:34:41;98915.53;;;7.13;100.00
18987;BME280;9627;59.236;18.142;2023-03-23T05:37:08;98910.78;;;7.48;100.00
18987;BME280;9627;59.236;18.142;2023-03-23T05:39:37;98925.56;;;8.13;100.00
18987;BME280;9627;59.236;18.142;2023-03-23T05:42:06;98927.31;;;8.63;100.00
18987;BME280;9627;59.236;18.142;2023-03-23T05:44:34;98927.22;;;8.76;100.00
18987;BME280;9627;59.236;18.142;2023-03-23T05:47:02;98919.03;;;9.02;100.00
18987;BME280;9627;59.236;18.142;2023-03-23T05:49:30;98939.31;;;8.90;100.00
18987;BME280;9627;59.236;18.142;2023-03-23T05:51:57;98938.31;;;8.60;100.00
18987;BME280;9627;59.236;18.142;2023-03-23T05:54:25;98933.66;;;9.48;100.00
18987;BME280;9627;59.236;18.142;2023-03-23T05:56:52;98946.91;;;9.84;100.00
18987;BME280;9627;59.236;18.142;2023-03-23T05:59:21;98940.44;;;9.62;100.00
18987;BME280;9627;59.236;18.142;2023-03-23T06:01:48;98944.81;;;9.74;100.00
18987;BME280;9627;59.236;18.142;2023-03-23T06:04:18;98947.81;;;9.78;100.00
18987;BME280;9627;59.236;18.142;2023-03-23T06:06:46;98954.94;;;9.95;100.00
18987;BME280;9627;59.236;18.142;2023-03-23T06:09:13;98964.56;;;10.26;100.00
18987;BME280;9627;59.236;18.142;2023-03-23T06:11:42;98963.91;;;10.72;100.00
18987;BME280;9627;59.236;18.142;2023-03-23T06:14:08;98954.44;;;11.17;100.00
18987;BME280;9627;59.236;18.142;2023-03-23T06:16:38;98961.25;;;10.31;100.00
18987;BME280;9627;59.236;18.142;2023-03-23T06:19:05;98964.84;;;10.77;100.00
18987;BME280;9627;59.236;18.142;2023-03-23T06:21:32;98950.56;;;10.37;100.00
18987;BME280;9627;59.236;18.142;2023-03-23T06:24:00;98963.19;;;11.52;100.00
18987;BME280;9627;59.236;18.142;2023-03-23T06:26:28;98964.22;;;10.93;100.00
18987;BME280;9627;59.236;18.142;2023-03-23T06:28:56;98972.88;;;12.04;100.00
18987;BME280;9627;59.236;18.142;2023-03-23T06:31:24;98978.22;;;12.33;100.00
18987;BME280;9627;59.236;18.142;2023-03-23T06:33:55;98985.03;;;11.77;100.00
18987;BME280;9627;59.236;18.142;2023-03-23T06:36:22;98988.03;;;12.60;100.00
18987;BME280;9627;59.236;18.142;2023-03-23T06:38:52;98988.38;;;12.64;100.00
18987;BME280;9627;59.236;18.142;2023-03-23T06:41:20;98981.84;;;12.15;100.00
18987;BME280;9627;59.236;18.142;2023-03-23T06:43:47;98994.69;;;12.46;100.00
18987;BME280;9627;59.236;18.142;2023-03-23T06:46:15;98999.63;;;12.14;100.00
18987;BME280;9627;59.236;18.142;2023-03-23T06:48:42;99014.28;;;11.89;100.00
18987;BME280;9627;59.236;18.142;2023-03-23T06:51:11;99004.84;;;12.21;100.00
18987;BME280;9627;59.236;18.142;2023-03-23T06:53:38;99007.19;;;13.35;100.00
18987;BME280;9627;59.236;18.142;2023-03-23T06:56:06;99006.84;;;12.02;100.00
18987;BME280;9627;59.236;18.142;2023-03-23T06:58:33;99009.31;;;11.69;100.00
18987;BME280;9627;59.236;18.142;2023-03-23T07:01:01;99007.22;;;12.62;100.00
18987;BME280;9627;59.236;18.142;2023-03-23T07:03:28;99022.31;;;12.85;100.00
18987;BME280;9627;59.236;18.142;2023-03-23T07:05:56;99026.41;;;13.21;100.00
18987;BME280;9627;59.236;18.142;2023-03-23T07:08:25;99026.66;;;12.35;100.00
18987;BME280;9627;59.236;18.142;2023-03-23T07:10:52;99030.09;;;13.03;100.00
18987;BME280;9627;59.236;18.142;2023-03-23T07:13:19;99032.03;;;13.74;100.00
18987;BME280;9627;59.236;18.142;2023-03-23T07:15:47;99035.75;;;13.73;100.00
18987;BME280;9627;59.236;18.142;2023-03-23T07:18:14;99041.22;;;13.83;100.00
18987;BME280;9627;59.236;18.142;2023-03-23T07:20:42;99036.31;;;14.13;100.00
18987;BME280;9627;59.236;18.142;2023-03-23T07:23:09;99049.28;;;14.26;100.00
18987;BME280;9627;59.236;18.142;2023-03-23T07:25:38;99053.34;;;13.90;100.00
18987;BME280;9627;59.236;18.142;2023-03-23T07:28:08;99050.94;;;14.49;100.00
18987;BME280;9627;59.236;18.142;2023-03-23T07:30:35;99059.59;;;13.63;100.00
18987;BME280;9627;59.236;18.142;2023-03-23T07:33:04;99065.59;;;13.53;100.00
18987;BME280;9627;59.236;18.142;2023-03-23T07:35:31;99074.63;;;14.24;100.00
18987;BME280;9627;59.236;18.142;2023-03-23T07:37:59;99067.81;;;13.61;100.00
18987;BME280;9627;59.236;18.142;2023-03-23T07:40:27;99061.97;;;14.36;100.00
18987;BME280;9627;59.236;18.142;2023-03-23T07:43:00;99086.16;;;13.58;100.00
18987;BME280;9627;59.236;18.142;2023-03-23T07:45:28;99084.75;;;13.67;100.00
18987;BME280;9627;59.236;18.142;2023-03-23T07:47:55;99085.16;;;14.52;100.00
18987;BME280;9627;59.236;18.142;2023-03-23T07:50:22;99082.69;;;14.72;100.00
18987;BME280;9627;59.236;18.142;2023-03-23T07:52:50;99089.97;;;14.76;100.00
18987;BME280;9627;59.236;18.142;2023-03-23T07:55:17;99094.78;;;15.01;100.00
18987;BME280;9627;59.236;18.142;2023-03-23T07:57:45;99089.25;;;15.66;100.00
18987;BME280;9627;59.236;18.142;2023-03-23T08:00:16;99098.13;;;15.71;100.00
18987;BME280;9627;59.236;18.142;2023-03-23T08:02:44;99092.47;;;14.83;100.00
18987;BME280;9627;59.236;18.142;2023-03-23T08:05:11;99106.13;;;14.27;100.00
18987;BME280;9627;59.236;18.142;2023-03-23T08:07:38;99099.50;;;14.67;100.00
18987;BME280;9627;59.236;18.142;2023-03-23T08:10:06;99099.13;;;15.34;100.00
18987;BME280;9627;59.236;18.142;2023-03-23T08:12:35;99110.63;;;15.98;100.00
18987;BME280;9627;59.236;18.142;2023-03-23T08:15:03;99105.47;;;15.86;100.00
18987;BME280;9627;59.236;18.142;2023-03-23T08:17:33;99108.53;;;17.28;100.00
18987;BME280;9627;59.236;18.142;2023-03-23T08:20:01;99104.47;;;17.11;100.00
18987;BME280;9627;59.236;18.142;2023-03-23T08:22:36;99102.16;;;15.74;100.00
18987;BME280;9627;59.236;18.142;2023-03-23T08:25:03;99096.28;;;15.77;100.00
18987;BME280;9627;59.236;18.142;2023-03-23T08:27:31;99100.69;;;15.93;100.00
18987;BME280;9627;59.236;18.142;2023-03-23T08:29:58;99102.53;;;15.56;100.00
18987;BME280;9627;59.236;18.142;2023-03-23T08:32:25;99098.72;;;16.20;100.00
18987;BME280;9627;59.236;18.142;2023-03-23T08:34:55;99102.53;;;16.81;100.00
18987;BME280;9627;59.236;18.142;2023-03-23T08:37:22;99093.78;;;17.16;100.00
18987;BME280;9627;59.236;18.142;2023-03-23T08:39:50;99094.00;;;17.09;100.00
18987;BME280;9627;59.236;18.142;2023-03-23T08:42:18;99091.25;;;16.84;100.00
18987;BME280;9627;59.236;18.142;2023-03-23T08:44:45;99089.44;;;16.38;100.00
18987;BME280;9627;59.236;18.142;2023-03-23T08:47:13;99094.50;;;16.86;100.00
18987;BME280;9627;59.236;18.142;2023-03-23T08:49:40;99087.28;;;17.02;100.00
18987;BME280;9627;59.236;18.142;2023-03-23T08:52:09;99095.91;;;17.14;100.00
18987;BME280;9627;59.236;18.142;2023-03-23T08:54:36;99100.75;;;15.61;100.00
18987;BME280;9627;59.236;18.142;2023-03-23T08:57:04;99098.69;;;16.15;100.00
18987;BME280;9627;59.236;18.142;2023-03-23T08:59:32;99095.66;;;16.43;100.00
18987;BME280;9627;59.236;18.142;2023-03-23T09:02:00;99101.16;;;16.79;100.00
18987;BME280;9627;59.236;18.142;2023-03-23T09:04:27;99097.69;;;15.48;100.00
18987;BME280;9627;59.236;18.142;2023-03-23T09:06:55;99088.38;;;15.55;100.00
18987;BME280;9627;59.236;18.142;2023-03-23T09:09:25;99093.97;;;16.32;100.00
18987;BME280;9627;59.236;18.142;2023-03-23T09:11:52;99101.97;;;16.84;100.00
18987;BME280;9627;59.236;18.142;2023-03-23T09:14:20;99096.19;;;17.17;100.00
18987;BME280;9627;59.236;18.142;2023-03-23T09:16:47;99089.16;;;16.96;100.00
18987;BME280;9627;59.236;18.142;2023-03-23T09:19:14;99091.84;;;16.34;100.00
18987;BME280;9627;59.236;18.142;2023-03-23T09:21:42;99088.25;;;15.77;100.00
18987;BME280;9627;59.236;18.142;2023-03-23T09:24:10;99088.84;;;16.26;100.00
18987;BME280;9627;59.236;18.142;2023-03-23T09:26:39;99084.50;;;15.73;100.00
18987;BME280;9627;59.236;18.142;2023-03-23T09:29:06;99077.34;;;15.47;100.00
18987;BME280;9627;59.236;18.142;2023-03-23T09:31:34;99079.94;;;16.15;100.00
18987;BME280;9627;59.236;18.142;2023-03-23T09:34:02;99078.25;;;15.99;100.00
18987;BME280;9627;59.236;18.142;2023-03-23T09:36:29;99072.66;;;15.64;100.00
18987;BME280;9627;59.236;18.142;2023-03-23T09:38:57;99068.91;;;16.53;100.00
18987;BME280;9627;59.236;18.142;2023-03-23T09:41:32;99065.03;;;15.46;100.00
18987;BME280;9627;59.236;18.142;2023-03-23T09:44:06;99067.94;;;15.76;100.00
18987;BME280;9627;59.236;18.142;2023-03-23T09:46:40;99073.84;;;15.20;100.00
18987;BME280;9627;59.236;18.142;2023-03-23T09:49:11;99061.88;;;14.96;100.00
18987;BME280;9627;59.236;18.142;2023-03-23T09:51:42;99063.94;;;15.42;100.00
18987;BME280;9627;59.236;18.142;2023-03-23T09:54:11;99062.81;;;14.84;100.00
18987;BME280;9627;59.236;18.142;2023-03-23T09:56:40;99054.38;;;15.51;100.00
18987;BME280;9627;59.236;18.142;2023-03-23T09:59:13;99060.19;;;15.79;100.00
18987;BME280;9627;59.236;18.142;2023-03-23T10:01:43;99054.06;;;16.93;100.00
18987;BME280;9627;59.236;18.142;2023-03-23T10:04:21;99059.63;;;16.19;100.00
18987;BME280;9627;59.236;18.142;2023-03-23T10:06:50;99062.66;;;16.33;100.00
18987;BME280;9627;59.236;18.142;2023-03-23T10:09:18;99049.03;;;15.88;100.00
18987;BME280;9627;59.236;18.142;2023-03-23T10:11:49;99045.66;;;15.34;100.00
18987;BME280;9627;59.236;18.142;2023-03-23T10:14:24;99056.63;;;15.06;100.00
18987;BME280;9627;59.236;18.142;2023-03-23T10:16:56;99048.59;;;15.64;100.00
18987;BME280;9627;59.236;18.142;2023-03-23T10:19:27;99049.94;;;15.61;100.00
18987;BME280;9627;59.236;18.142;2023-03-23T10:21:57;99059.56;;;15.67;100.00
18987;BME280;9627;59.236;18.142;2023-03-23T10:24:31;99051.56;;;14.34;100.00
18987;BME280;9627;59.236;18.142;2023-03-23T10:27:03;99058.19;;;14.53;100.00
18987;BME280;9627;59.236;18.142;2023-03-23T10:29:35;99046.34;;;14.93;100.00
18987;BME280;9627;59.236;18.142;2023-03-23T10:32:05;99048.25;;;14.70;100.00
18987;BME280;9627;59.236;18.142;2023-03-23T10:34:40;99045.34;;;13.90;100.00
18987;BME280;9627;59.236;18.142;2023-03-23T10:37:10;99044.88;;;14.15;100.00
18987;BME280;9627;59.236;18.142;2023-03-23T10:39:41;99044.88;;;13.77;100.00
18987;BME280;9627;59.236;18.142;2023-03-23T10:42:10;99046.09;;;14.46;100.00
18987;BME280;9627;59.236;18.142;2023-03-23T10:44:39;99039.59;;;15.12;100.00
18987;BME280;9627;59.236;18.142;2023-03-23T10:47:07;99050.63;;;14.45;100.00
18987;BME280;9627;59.236;18.142;2023-03-23T10:49:36;99037.09;;;15.05;100.00
18987;BME280;9627;59.236;18.142;2023-03-23T10:52:09;99033.69;;;15.10;100.00
18987;BME280;9627;59.236;18.142;2023-03-23T10:54:39;99041.28;;;14.69;100.00
18987;BME280;9627;59.236;18.142;2023-03-23T10:57:20;99044.31;;;15.05;100.00
18987;BME280;9627;59.236;18.142;2023-03-23T10:59:50;99046.34;;;14.06;100.00
18987;BME280;9627;59.236;18.142;2023-03-23T11:02:18;99038.97;;;14.30;100.00
18987;BME280;9627;59.236;18.142;2023-03-23T11:04:46;99038.59;;;13.66;100.00
18987;BME280;9627;59.236;18.142;2023-03-23T11:07:17;99038.50;;;13.78;100.00
18987;BME280;9627;59.236;18.142;2023-03-23T11:09:51;99031.41;;;14.05;100.00
18987;BME280;9627;59.236;18.142;2023-03-23T11:12:18;99033.63;;;13.91;100.00
18987;BME280;9627;59.236;18.142;2023-03-23T11:14:48;99036.09;;;13.60;100.00
18987;BME280;9627;59.236;18.142;2023-03-23T11:17:22;99036.66;;;13.78;100.00
18987;BME280;9627;59.236;18.142;2023-03-23T11:19:49;99037.53;;;13.84;100.00
18987;BME280;9627;59.236;18.142;2023-03-23T11:22:20;99032.97;;;13.84;100.00
18987;BME280;9627;59.236;18.142;2023-03-23T11:24:52;99041.69;;;14.56;100.00
18987;BME280;9627;59.236;18.142;2023-03-23T11:27:19;99034.19;;;14.15;100.00
18987;BME280;9627;59.236;18.142;2023-03-23T11:29:48;99032.72;;;14.67;100.00
18987;BME280;9627;59.236;18.142;2023-03-23T11:32:17;99024.56;;;14.52;100.00
18987;BME280;9627;59.236;18.142;2023-03-23T11:34:47;99028.34;;;14.83;100.00
18987;BME280;9627;59.236;18.142;2023-03-23T11:37:17;99019.72;;;15.03;100.00
18987;BME280;9627;59.236;18.142;2023-03-23T11:39:48;99019.47;;;15.36;100.00
18987;BME280;9627;59.236;18.142;2023-03-23T11:42:18;99023.50;;;15.07;100.00
18987;BME280;9627;59.236;18.142;2023-03-23T11:44:46;99023.53;;;14.15;100.00
18987;BME280;9627;59.236;18.142;2023-03-23T11:47:16;99024.56;;;14.52;100.00
18987;BME280;9627;59.236;18.142;2023-03-23T11:49:52;99023.25;;;14.33;100.00
18987;BME280;9627;59.236;18.142;2023-03-23T11:52:22;99024.88;;;14.82;100.00
18987;BME280;9627;59.236;18.142;2023-03-23T11:54:54;99023.47;;;14.53;100.00
18987;BME280;9627;59.236;18.142;2023-03-23T11:57:23;99028.06;;;14.79;100.00
18987;BME280;9627;59.236;18.142;2023-03-23T11:59:50;99017.41;;;15.11;100.00
18987;BME280;9627;59.236;18.142;2023-03-23T12:02:28;99013.50;;;14.97;100.00
18987;BME280;9627;59.236;18.142;2023-03-23T12:05:03;99008.44;;;14.04;100.00
18987;BME280;9627;59.236;18.142;2023-03-23T12:07:41;99002.09;;;14.48;100.00
18987;BME280;9627;59.236;18.142;2023-03-23T12:10:24;99008.91;;;14.18;100.00
18987;BME280;9627;59.236;18.142;2023-03-23T12:12:55;99002.22;;;14.37;100.00
18987;BME280;9627;59.236;18.142;2023-03-23T12:15:26;99003.53;;;13.74;100.00
18987;BME280;9627;59.236;18.142;2023-03-23T12:17:58;99000.44;;;14.04;100.00
18987;BME280;9627;59.236;18.142;2023-03-23T12:20:32;98997.03;;;14.52;100.00
18987;BME280;9627;59.236;18.142;2023-03-23T12:23:06;98992.69;;;14.46;100.00
18987;BME280;9627;59.236;18.142;2023-03-23T12:25:43;98994.06;;;14.48;100.00
18987;BME280;9627;59.236;18.142;2023-03-23T12:28:17;98982.28;;;14.01;100.00
18987;BME280;9627;59.236;18.142;2023-03-23T12:30:51;98975.81;;;14.40;100.00
18987;BME280;9627;59.236;18.142;2023-03-23T12:33:22;98975.75;;;14.14;100.00
18987;BME280;9627;59.236;18.142;2023-03-23T12:35:59;98978.25;;;14.68;100.00
18987;BME280;9627;59.236;18.142;2023-03-23T12:38:32;98977.06;;;14.54;100.00
18987;BME280;9627;59.236;18.142;2023-03-23T12:41:09;98977.44;;;14.20;100.00
18987;BME280;9627;59.236;18.142;2023-03-23T12:43:42;98971.66;;;14.06;100.00
18987;BME280;9627;59.236;18.142;2023-03-23T12:46:19;98980.47;;;14.07;100.00
18987;BME280;9627;59.236;18.142;2023-03-23T12:48:49;98970.41;;;13.92;100.00
18987;BME280;9627;59.236;18.142;2023-03-23T12:51:21;98971.78;;;14.16;100.00
18987;BME280;9627;59.236;18.142;2023-03-23T12:53:52;98970.44;;;14.35;100.00
18987;BME280;9627;59.236;18.142;2023-03-23T12:56:24;98966.19;;;13.96;100.00
18987;BME280;9627;59.236;18.142;2023-03-23T12:58:55;98968.84;;;13.96;100.00
18987;BME280;9627;59.236;18.142;2023-03-23T13:01:26;98965.81;;;14.09;100.00
18987;BME280;9627;59.236;18.142;2023-03-23T13:03:56;98964.69;;;14.27;100.00
18987;BME280;9627;59.236;18.142;2023-03-23T13:06:26;98953.97;;;14.22;100.00
18987;BME280;9627;59.236;18.142;2023-03-23T13:08:56;98958.44;;;13.94;100.00